Portada
METAR-TAF:

METAR-TAF

Aeroports :

Txeliàbinsk, Rússia

latitud: 55-10N, longitud: 061-24E, altitud: 234 m

Observació

L'informe es va fer fa 28 minuts, a les 20:00 UTC
Vent 10 kt del Oest/Nord-Oest
Temperatura -6°C
Humitat 73%
Pressió 1033 hPa
Visibilitat 10 km o més
Núvols disperses a una alçada de 4000 ft

METAR: USCC 222000Z 29005MPS 9999 SCT040 M06/M10 Q1033 R27/000060 NOSIG RMK QFE755

Hora: 01:28 (20:28 UTC)

Pronòstic

L'informe es va fer fa 3 hores i 28 minuts, a les 17:00 UTC
Pronòstic vàlid del 22 a les 18 UTC al 23 a les 18 UTC
Vent 6 kt del Oest/Nord-Oest amb ràfegues de 19 kt
Visibilitat: 6000 m
Cel cobert a una alçada de 1500 ft
Temporalment
l' 22 a les 18 UTC al 23 a les 18 UTC
Vent 12 kt del Nord-Oest amb ràfegues de 23 kt
Visibilitat: 3100 m
Cel cobert a una alçada de 1100 ft
neu

TAF: USCC 221700Z 2218/2318 29003G10MPS 6000 OVC015 TEMPO 2218/2318 31006G12MPS 3100 -SN OVC011

Observacions i pronòstics meteorològics de més de 4000 aeroports (METAR i TAF).

Les estacions disponibles són els punts grocs i vermells al mapa.

Posi el ratolí al punt desitjat per veure el nom de l'estació.

Feu clic per veure les observacions i els pronòstics meteorològics.

Per canviar el mapa: feu clic els botons verds amb una creu de color negre per apropar; al botó verd amb un guió per allunyar la imatge; o en les fletxes verdes per a mapes adjacents.


METAR-TAF: